createdAt,value
2022-09-13T00:01:43.465Z,101141.91
2022-09-13T00:04:13.802Z,101136.88
2022-09-13T00:06:43.819Z,101138.88
2022-09-13T00:09:13.779Z,101147.13
2022-09-13T00:11:43.712Z,101155.38
2022-09-13T00:14:14.680Z,101164.44
2022-09-13T00:16:45.423Z,101162.09
2022-09-13T00:19:15.747Z,101163.91
2022-09-13T00:21:45.723Z,101159.69
2022-09-13T00:24:15.707Z,101167.13
2022-09-13T00:26:45.968Z,101180.50
2022-09-13T00:29:16.477Z,101172.78
2022-09-13T00:31:46.554Z,101174.78
2022-09-13T00:34:16.541Z,101175.13
2022-09-13T00:36:46.614Z,101173.66
2022-09-13T00:39:16.588Z,101177.88
2022-09-13T00:41:46.647Z,101184.47
2022-09-13T00:44:53.011Z,101188.94
2022-09-13T00:47:37.984Z,101199.03
2022-09-13T00:50:33.385Z,101205.66
2022-09-13T00:53:18.668Z,101204.16
2022-09-13T00:55:55.694Z,101207.19
2022-09-13T00:58:51.970Z,101203.00
2022-09-13T01:01:27.006Z,101216.38
2022-09-13T01:03:58.227Z,101217.81
2022-09-13T01:06:34.503Z,101229.78
2022-09-13T01:09:06.663Z,101235.53
2022-09-13T01:11:56.894Z,101235.69
2022-09-13T01:14:27.495Z,101240.16
2022-09-13T01:16:57.914Z,101238.84
2022-09-13T01:19:28.222Z,101241.47
2022-09-13T01:22:00.888Z,101251.09
2022-09-13T01:25:20.690Z,101248.97
2022-09-13T01:28:27.745Z,101257.19
2022-09-13T01:31:27.648Z,101257.56
2022-09-13T01:34:31.458Z,101259.00
2022-09-13T01:37:21.486Z,101264.53
2022-09-13T01:40:18.646Z,101267.59
2022-09-13T01:43:04.259Z,101268.75
2022-09-13T01:45:57.989Z,101263.13
2022-09-13T01:48:57.466Z,101273.47
2022-09-13T01:51:36.517Z,101268.06
2022-09-13T01:54:26.813Z,101270.28
2022-09-13T01:57:08.649Z,101269.22
2022-09-13T01:59:56.288Z,101269.00
2022-09-13T02:02:34.691Z,101262.53
2022-09-13T02:05:29.598Z,101263.13
2022-09-13T02:08:15.354Z,101256.16
2022-09-13T02:10:55.483Z,101250.28
2022-09-13T02:13:29.256Z,101251.69
2022-09-13T02:16:12.783Z,101257.69
2022-09-13T02:18:49.233Z,101258.28
2022-09-13T02:21:35.609Z,101265.31
2022-09-13T02:24:13.980Z,101259.44
2022-09-13T02:26:47.927Z,101257.09
2022-09-13T02:29:22.894Z,101262.03
2022-09-13T02:32:11.522Z,101255.31
2022-09-13T02:35:36.647Z,101250.25
2022-09-13T02:38:14.839Z,101244.69
2022-09-13T02:40:50.970Z,101241.09
2022-09-13T02:43:29.079Z,101235.75
2022-09-13T02:46:11.294Z,101237.28
2022-09-13T02:49:15.921Z,101235.25
2022-09-13T02:52:05.288Z,101229.69
2022-09-13T02:54:54.319Z,101238.97
2022-09-13T02:57:33.532Z,101240.94
2022-09-13T03:00:03.734Z,101245.94
2022-09-13T03:02:35.808Z,101237.69
2022-09-13T03:05:07.194Z,101240.72
2022-09-13T03:07:38.066Z,101235.41
2022-09-13T03:10:15.239Z,101231.50
2022-09-13T03:13:18.972Z,101232.75
2022-09-13T03:16:07.582Z,101224.72
2022-09-13T03:18:41.419Z,101224.19
2022-09-13T03:21:28.831Z,101221.66
2022-09-13T03:24:27.719Z,101223.16
2022-09-13T03:27:44.658Z,101215.66
2022-09-13T03:30:16.821Z,101213.34
2022-09-13T03:32:55.014Z,101215.06
2022-09-13T03:35:34.979Z,101208.66
2022-09-13T03:38:53.973Z,101202.75
2022-09-13T03:41:34.299Z,101200.94
2022-09-13T03:44:10.157Z,101195.59
2022-09-13T03:46:54.390Z,101201.91
2022-09-13T03:49:28.127Z,101196.78
2022-09-13T03:51:59.567Z,101190.03
2022-09-13T03:54:34.900Z,101194.63
2022-09-13T03:57:12.166Z,101193.31
2022-09-13T03:59:50.753Z,101190.09
2022-09-13T04:02:22.227Z,101194.53
2022-09-13T04:04:53.665Z,101189.16
2022-09-13T04:07:26.676Z,101190.84
2022-09-13T04:09:57.393Z,101195.53
2022-09-13T04:12:28.562Z,101192.03
2022-09-13T04:14:59.295Z,101186.44
2022-09-13T04:17:29.593Z,101185.69
2022-09-13T04:19:59.606Z,101190.09
2022-09-13T04:22:29.661Z,101186.63
2022-09-13T04:25:02.660Z,101180.94
2022-09-13T04:27:33.343Z,101189.13
2022-09-13T04:30:05.136Z,101180.44
2022-09-13T04:32:35.226Z,101183.50
2022-09-13T04:35:05.413Z,101179.44
2022-09-13T04:37:36.156Z,101183.53
2022-09-13T04:40:09.130Z,101181.69
2022-09-13T04:42:39.646Z,101186.03
2022-09-13T04:45:10.753Z,101177.06
2022-09-13T04:47:41.848Z,101176.81
2022-09-13T04:50:12.007Z,101169.50
2022-09-13T04:52:41.330Z,101168.69
2022-09-13T04:55:11.457Z,101171.94
2022-09-13T04:57:41.635Z,101168.16
2022-09-13T05:00:12.621Z,101172.50
2022-09-13T05:02:44.292Z,101167.59
2022-09-13T05:05:14.659Z,101159.97
2022-09-13T05:07:45.039Z,101156.16
2022-09-13T05:10:19.412Z,101162.16
2022-09-13T05:12:50.332Z,101168.41
2022-09-13T05:15:20.677Z,101161.38
2022-09-13T05:17:50.823Z,101164.09
2022-09-13T05:20:22.595Z,101152.72
2022-09-13T05:22:52.679Z,101150.56
2022-09-13T05:25:26.542Z,101153.03
2022-09-13T05:27:57.028Z,101152.53
2022-09-13T05:30:27.320Z,101149.50
2022-09-13T05:32:59.059Z,101161.53
2022-09-13T05:35:31.850Z,101146.34
2022-09-13T05:38:02.082Z,101139.06
2022-09-13T05:40:32.555Z,101134.22
2022-09-13T05:43:02.913Z,101138.06
2022-09-13T05:45:32.961Z,101135.63
2022-09-13T05:48:03.253Z,101134.28
2022-09-13T05:50:57.286Z,101135.13
2022-09-13T05:53:23.468Z,101134.03
2022-09-13T05:55:53.787Z,101126.69
2022-09-13T05:58:24.882Z,101132.97
2022-09-13T06:00:59.892Z,101132.13
2022-09-13T06:03:31.232Z,101137.56
2022-09-13T06:06:06.043Z,101122.38
2022-09-13T06:08:37.941Z,101119.94
2022-09-13T06:11:13.002Z,101115.34
2022-09-13T06:13:44.686Z,101118.09
2022-09-13T06:16:17.712Z,101109.69
2022-09-13T06:18:48.610Z,101114.03
2022-09-13T06:21:25.736Z,101113.25
2022-09-13T06:23:59.182Z,101104.81
2022-09-13T06:26:31.117Z,101104.03
2022-09-13T06:29:03.200Z,101104.34
2022-09-13T06:31:33.997Z,101107.38
2022-09-13T06:34:05.010Z,101106.81
2022-09-13T06:36:35.798Z,101108.19
2022-09-13T06:39:07.831Z,101102.75
2022-09-13T06:41:39.358Z,101099.78
2022-09-13T06:44:12.451Z,101103.84
2022-09-13T06:46:43.320Z,101094.88
2022-09-13T06:49:14.707Z,101098.41
2022-09-13T06:51:45.839Z,101108.47
2022-09-13T06:55:09.579Z,101106.84
2022-09-13T06:57:43.946Z,101103.06
2022-09-13T07:00:15.736Z,101100.88
2022-09-13T07:02:46.445Z,101102.53
2022-09-13T07:05:20.818Z,101101.97
2022-09-13T07:07:51.485Z,101093.81
2022-09-13T07:10:23.183Z,101102.81
2022-09-13T07:12:53.428Z,101096.53
2022-09-13T07:15:23.688Z,101093.00
2022-09-13T07:17:53.712Z,101098.72
2022-09-13T07:20:25.064Z,101097.91
2022-09-13T07:22:55.304Z,101095.19
2022-09-13T07:25:25.901Z,101095.97
2022-09-13T07:27:56.179Z,101091.06
2022-09-13T07:30:29.293Z,101089.19
2022-09-13T07:33:00.887Z,101090.00
2022-09-13T07:35:31.532Z,101095.19
2022-09-13T07:38:01.761Z,101088.94
2022-09-13T07:40:32.105Z,101092.47
2022-09-13T07:43:04.792Z,101084.84
2022-09-13T07:45:35.892Z,101076.41
2022-09-13T07:48:06.749Z,101077.22
2022-09-13T07:50:36.701Z,101079.69
2022-09-13T07:53:06.691Z,101071.53
2022-09-13T07:55:37.563Z,101079.69
2022-09-13T07:58:10.486Z,101066.91
2022-09-13T08:00:41.026Z,101072.91
2022-09-13T08:03:13.518Z,101072.63
2022-09-13T08:05:44.760Z,101081.88
2022-09-13T08:08:14.827Z,101079.16
2022-09-13T08:10:49.264Z,101069.34
2022-09-13T08:13:20.413Z,101072.59
2022-09-13T08:15:51.525Z,101074.22
2022-09-13T08:18:22.310Z,101077.47
2022-09-13T08:20:52.997Z,101074.75
2022-09-13T08:23:23.303Z,101076.38
2022-09-13T08:25:53.527Z,101081.81
2022-09-13T08:28:29.265Z,101077.19
2022-09-13T08:31:15.263Z,101077.19
2022-09-13T08:33:50.627Z,101077.19
2022-09-13T08:36:22.605Z,101076.09
2022-09-13T08:39:00.792Z,101077.19
2022-09-13T08:41:50.277Z,101073.09
2022-09-13T08:44:35.745Z,101070.91
2022-09-13T08:47:24.273Z,101076.88
2022-09-13T08:50:26.899Z,101083.66
2022-09-13T08:53:02.940Z,101080.41
2022-09-13T08:55:54.329Z,101075.97
2022-09-13T08:58:27.372Z,101084.69
2022-09-13T09:01:17.030Z,101081.69
2022-09-13T09:04:28.199Z,101082.22
2022-09-13T09:07:16.682Z,101085.97
2022-09-13T09:10:04.390Z,101090.31
2022-09-13T09:12:47.800Z,101084.84
2022-09-13T09:15:36.031Z,101085.91
2022-09-13T09:18:32.154Z,101089.66
2022-09-13T09:21:07.425Z,101088.00
2022-09-13T09:23:53.463Z,101094.47
2022-09-13T09:26:32.731Z,101088.16
2022-09-13T09:29:35.013Z,101090.59
2022-09-13T09:32:20.316Z,101094.06
2022-09-13T09:35:09.459Z,101089.69
2022-09-13T09:37:41.470Z,101096.97
2022-09-13T09:40:18.582Z,101093.13
2022-09-13T09:42:51.175Z,101094.75
2022-09-13T09:45:32.149Z,101088.16
2022-09-13T09:48:07.616Z,101094.41
2022-09-13T09:50:45.976Z,101094.34
2022-09-13T09:53:37.467Z,101090.78
2022-09-13T09:56:30.812Z,101096.16
2022-09-13T09:59:01.304Z,101097.19
2022-09-13T10:01:37.792Z,101092.50
2022-09-13T10:04:13.569Z,101087.59
2022-09-13T10:06:45.212Z,101086.72
2022-09-13T10:09:20.860Z,101093.16
2022-09-13T10:11:55.441Z,101094.75
2022-09-13T10:14:38.034Z,101093.88
2022-09-13T10:17:29.823Z,101092.97
2022-09-13T10:20:05.504Z,101093.22
2022-09-13T10:22:35.948Z,101101.03
2022-09-13T10:25:33.128Z,101092.00
2022-09-13T10:28:04.462Z,101092.78
2022-09-13T10:30:52.119Z,101095.44
2022-09-13T10:33:40.592Z,101094.25
2022-09-13T10:36:48.633Z,101102.91
2022-09-13T10:39:23.685Z,101096.31
2022-09-13T10:42:04.099Z,101106.84
2022-09-13T10:44:42.713Z,101096.78
2022-09-13T10:47:29.529Z,101108.13
2022-09-13T10:50:12.356Z,101096.97
2022-09-13T10:52:50.995Z,101108.28
2022-09-13T10:55:20.978Z,101109.88
2022-09-13T10:57:58.298Z,101110.38
2022-09-13T11:01:13.079Z,101126.31
2022-09-13T11:04:10.398Z,101126.25
2022-09-13T11:07:26.404Z,101134.28
2022-09-13T11:10:00.149Z,101131.00
2022-09-13T11:12:54.192Z,101133.66
2022-09-13T11:15:32.903Z,101137.94
2022-09-13T11:18:29.294Z,101147.59
2022-09-13T11:21:20.065Z,101154.81
2022-09-13T11:24:17.745Z,101158.50
2022-09-13T11:27:03.922Z,101159.22
2022-09-13T11:29:39.741Z,101171.97
2022-09-13T11:32:19.411Z,101174.91
2022-09-13T11:35:18.938Z,101180.25
2022-09-13T11:38:27.130Z,101183.91
2022-09-13T11:41:13.466Z,101189.00
2022-09-13T11:44:01.475Z,101192.44
2022-09-13T11:46:58.866Z,101194.81
2022-09-13T11:49:39.302Z,101196.13
2022-09-13T11:52:09.168Z,101199.56
2022-09-13T11:55:00.347Z,101193.56
2022-09-13T11:57:36.441Z,101201.34
2022-09-13T12:00:18.174Z,101208.53
2022-09-13T12:03:00.918Z,101214.44
2022-09-13T12:05:44.679Z,101209.53
2022-09-13T12:08:23.921Z,101219.78
2022-09-13T12:11:04.723Z,101217.31
2022-09-13T12:13:51.474Z,101225.66
2022-09-13T12:16:52.175Z,101224.25
2022-09-13T12:19:51.000Z,101224.09
2022-09-13T12:22:27.666Z,101229.16
2022-09-13T12:25:05.399Z,101233.19
2022-09-13T12:27:47.371Z,101233.66
2022-09-13T12:30:22.032Z,101230.38
2022-09-13T12:32:58.642Z,101238.97
2022-09-13T12:35:34.784Z,101237.81
2022-09-13T12:38:20.234Z,101240.50
2022-09-13T12:41:08.506Z,101238.84
2022-09-13T12:43:56.632Z,101240.97
2022-09-13T12:47:03.051Z,101242.06
2022-09-13T12:50:36.784Z,101240.16
2022-09-13T12:53:02.296Z,101243.09
2022-09-13T12:55:47.110Z,101245.22
2022-09-13T12:58:44.949Z,101248.16
2022-09-13T13:01:18.672Z,101244.88
2022-09-13T13:04:05.456Z,101245.34
2022-09-13T13:06:40.943Z,101241.00
2022-09-13T13:09:42.277Z,101241.84
2022-09-13T13:12:31.039Z,101253.13
2022-09-13T13:15:03.695Z,101249.03
2022-09-13T13:17:40.353Z,101251.34
2022-09-13T13:20:47.491Z,101249.47
2022-09-13T13:23:18.021Z,101248.06
2022-09-13T13:25:59.389Z,101241.84
2022-09-13T13:28:53.158Z,101250.75
2022-09-13T13:31:32.414Z,101237.25
2022-09-13T13:34:05.535Z,101237.47
2022-09-13T13:36:44.301Z,101244.78
2022-09-13T13:39:29.377Z,101235.50
2022-09-13T13:42:15.368Z,101243.25
2022-09-13T13:44:45.343Z,101243.72
2022-09-13T13:47:19.625Z,101245.38
2022-09-13T13:50:16.022Z,101232.09
2022-09-13T13:53:07.483Z,101241.25
2022-09-13T13:55:50.459Z,101242.06
2022-09-13T13:58:40.296Z,101244.41
2022-09-13T14:01:19.851Z,101242.63
2022-09-13T14:03:55.465Z,101244.75
2022-09-13T14:07:06.034Z,101247.47
2022-09-13T14:09:58.751Z,101243.69
2022-09-13T14:12:47.560Z,101245.56
2022-09-13T14:15:40.505Z,101250.97
2022-09-13T14:18:43.496Z,101253.09
2022-09-13T14:21:30.938Z,101248.97
2022-09-13T14:24:22.783Z,101241.22
2022-09-13T14:27:03.953Z,101241.09
2022-09-13T14:29:40.077Z,101253.78
2022-09-13T14:32:22.857Z,101251.56
2022-09-13T14:34:59.267Z,101249.53
2022-09-13T14:37:35.199Z,101256.00
2022-09-13T14:40:08.721Z,101250.22
2022-09-13T14:42:45.607Z,101251.53
2022-09-13T14:45:26.641Z,101246.94
2022-09-13T14:48:27.234Z,101247.44
2022-09-13T14:51:07.147Z,101248.47
2022-09-13T14:53:41.636Z,101255.16
2022-09-13T14:56:50.323Z,101250.81
2022-09-13T14:59:28.084Z,101256.09
2022-09-13T15:02:02.952Z,101247.63
2022-09-13T15:04:33.627Z,101255.94
2022-09-13T15:07:20.757Z,101247.84
2022-09-13T15:09:52.721Z,101249.38
2022-09-13T15:12:30.247Z,101241.28
2022-09-13T15:15:22.140Z,101245.81
2022-09-13T15:18:00.575Z,101232.81
2022-09-13T15:20:47.332Z,101230.34
2022-09-13T15:23:28.119Z,101231.59
2022-09-13T15:26:09.715Z,101231.59
2022-09-13T15:28:46.242Z,101220.00
2022-09-13T15:31:32.527Z,101222.28
2022-09-13T15:34:23.611Z,101226.28
2022-09-13T15:37:16.710Z,101231.06
2022-09-13T15:39:55.361Z,101232.16
2022-09-13T15:42:25.760Z,101225.31
2022-09-13T15:44:56.652Z,101229.31
2022-09-13T15:47:28.310Z,101215.22
2022-09-13T15:50:00.018Z,101215.44
2022-09-13T15:52:31.086Z,101221.06
2022-09-13T15:55:01.487Z,101230.00
2022-09-13T15:57:32.468Z,101217.78
2022-09-13T16:00:06.615Z,101225.28
2022-09-13T16:02:39.732Z,101224.69
2022-09-13T16:05:11.215Z,101224.94
2022-09-13T16:07:42.867Z,101223.03
2022-09-13T16:10:26.734Z,101223.84
2022-09-13T16:12:57.571Z,101221.38
2022-09-13T16:15:29.737Z,101227.84
2022-09-13T16:18:00.728Z,101222.69
2022-09-13T16:20:31.119Z,101214.00
2022-09-13T16:23:02.729Z,101220.22
2022-09-13T16:25:33.246Z,101222.91
2022-09-13T16:28:05.897Z,101225.59
2022-09-13T16:30:37.258Z,101221.25
2022-09-13T16:33:07.755Z,101217.97
2022-09-13T16:35:38.863Z,101223.34
2022-09-13T16:38:09.573Z,101222.75
2022-09-13T16:40:45.700Z,101218.41
2022-09-13T16:43:17.269Z,101220.50
2022-09-13T16:45:52.773Z,101223.44
2022-09-13T16:48:23.087Z,101216.41
2022-09-13T16:50:53.895Z,101226.38
2022-09-13T16:53:24.642Z,101216.50
2022-09-13T16:55:54.925Z,101220.47
2022-09-13T16:58:25.040Z,101214.47
2022-09-13T17:00:55.040Z,101222.81
2022-09-13T17:03:37.277Z,101222.19
2022-09-13T17:06:10.676Z,101217.88
2022-09-13T17:08:43.483Z,101214.56
2022-09-13T17:11:17.649Z,101212.69
2022-09-13T17:13:48.014Z,101211.03
2022-09-13T17:16:29.932Z,101215.03
2022-09-13T17:19:02.848Z,101220.63
2022-09-13T17:21:35.102Z,101220.03
2022-09-13T17:24:10.083Z,101219.69
2022-09-13T17:26:48.132Z,101216.38
2022-09-13T17:29:37.559Z,101222.22
2022-09-13T17:32:08.710Z,101234.50
2022-09-13T17:34:39.198Z,101221.81
2022-09-13T17:37:10.442Z,101204.19
2022-09-13T17:39:40.696Z,101216.06
2022-09-13T17:42:10.772Z,101212.53
2022-09-13T17:44:40.954Z,101201.97
2022-09-13T17:47:10.829Z,101203.59
2022-09-13T17:49:40.937Z,101203.81
2022-09-13T17:52:11.047Z,101203.22
2022-09-13T17:54:41.107Z,101203.47
2022-09-13T17:57:13.154Z,101207.44
2022-09-13T17:59:43.819Z,101210.34
2022-09-13T18:02:13.758Z,101206.00
2022-09-13T18:04:43.720Z,101206.84
2022-09-13T18:07:13.969Z,101208.69
2022-09-13T18:09:44.893Z,101207.06
2022-09-13T18:12:14.935Z,101207.28
2022-09-13T18:14:45.142Z,101210.22
2022-09-13T18:17:15.099Z,101206.91
2022-09-13T18:19:46.742Z,101208.16
2022-09-13T18:22:17.563Z,101210.88
2022-09-13T18:24:48.082Z,101209.25
2022-09-13T18:27:18.320Z,101216.25
2022-09-13T18:29:48.902Z,101213.56
2022-09-13T18:32:18.867Z,101204.66
2022-09-13T18:34:48.792Z,101205.72
2022-09-13T18:37:18.813Z,101210.88
2022-09-13T18:39:49.097Z,101212.75
2022-09-13T18:42:19.053Z,101211.34
2022-09-13T18:44:50.008Z,101217.53
2022-09-13T18:47:20.580Z,101214.84
2022-09-13T18:49:50.630Z,101213.41
2022-09-13T18:52:20.587Z,101210.72
2022-09-13T18:54:50.590Z,101205.56
2022-09-13T18:57:20.720Z,101210.13
2022-09-13T18:59:51.396Z,101211.19
2022-09-13T19:02:21.403Z,101210.34
2022-09-13T19:04:52.009Z,101208.72
2022-09-13T19:07:21.443Z,101206.00
2022-09-13T19:09:52.840Z,101212.44
2022-09-13T19:12:22.743Z,101214.53
2022-09-13T19:14:52.691Z,101209.38
2022-09-13T19:17:22.659Z,101208.78
2022-09-13T19:19:52.821Z,101208.16
2022-09-13T19:22:22.780Z,101211.91
2022-09-13T19:24:53.919Z,101212.97
2022-09-13T19:27:24.134Z,101212.38
2022-09-13T19:29:55.064Z,101223.97
2022-09-13T19:32:25.299Z,101220.44
2022-09-13T19:34:55.513Z,101219.59
2022-09-13T19:37:25.492Z,101220.19
2022-09-13T19:39:56.605Z,101219.38
2022-09-13T19:42:26.659Z,101221.88
2022-09-13T19:44:56.675Z,101219.16
2022-09-13T19:50:16.764Z,101217.38
2022-09-13T19:52:46.906Z,101212.00
2022-09-13T19:55:42.671Z,101204.94
2022-09-13T19:58:12.743Z,101212.81
2022-09-13T20:00:43.483Z,101204.94
2022-09-13T20:03:14.400Z,101208.88
2022-09-13T20:05:44.541Z,101203.13
2022-09-13T20:08:14.419Z,101201.94
2022-09-13T20:10:44.649Z,101204.03
2022-09-13T20:13:15.721Z,101199.44
2022-09-13T20:15:46.719Z,101205.69
2022-09-13T20:18:17.350Z,101207.53
2022-09-13T20:20:50.281Z,101212.91
2022-09-13T20:23:21.721Z,101203.00
2022-09-13T20:25:52.668Z,101207.31
2022-09-13T20:28:23.187Z,101198.41
2022-09-13T20:31:03.244Z,101197.34
2022-09-13T20:33:34.123Z,101207.31
2022-09-13T20:36:10.927Z,101201.94
2022-09-13T20:38:42.263Z,101201.94
2022-09-13T20:41:15.348Z,101207.31
2022-09-13T20:43:45.844Z,101211.06
2022-09-13T20:46:19.890Z,101212.09
2022-09-13T20:48:50.830Z,101212.09
2022-09-13T20:51:24.535Z,101208.81
2022-09-13T20:54:01.623Z,101222.50
2022-09-13T20:56:35.685Z,101220.47
2022-09-13T20:59:06.792Z,101223.16
2022-09-13T21:04:20.508Z,101230.81
2022-09-13T21:07:13.707Z,101213.47
2022-09-13T21:09:45.307Z,101221.75
2022-09-13T21:12:17.063Z,101222.78
2022-09-13T21:14:47.616Z,101225.94
2022-09-13T21:17:17.679Z,101222.88
2022-09-13T21:19:48.000Z,101223.06
2022-09-13T21:22:18.178Z,101213.56
2022-09-13T21:24:48.168Z,101213.56
2022-09-13T21:27:19.317Z,101220.22
2022-09-13T21:29:49.948Z,101217.94
2022-09-13T21:32:20.415Z,101227.06
2022-09-13T21:34:50.337Z,101227.72
2022-09-13T21:37:20.357Z,101226.91
2022-09-13T21:39:50.383Z,101233.75
2022-09-13T21:42:20.444Z,101237.94
2022-09-13T21:44:50.476Z,101232.38
2022-09-13T21:47:20.430Z,101227.84
2022-09-13T21:49:49.753Z,101232.41
2022-09-13T21:52:20.997Z,101242.78
2022-09-13T21:54:51.360Z,101235.78
2022-09-13T21:57:22.064Z,101239.31
2022-09-13T21:59:52.971Z,101231.66
2022-09-13T22:02:23.181Z,101243.50
2022-09-13T22:04:53.155Z,101233.75
2022-09-13T22:07:23.095Z,101239.34
2022-09-13T22:09:53.992Z,101240.41
2022-09-13T22:12:25.249Z,101235.03
2022-09-13T22:14:56.189Z,101247.22
2022-09-13T22:17:25.462Z,101244.91
2022-09-13T22:19:56.345Z,101245.72
2022-09-13T22:22:30.525Z,101250.09
2022-09-13T22:25:00.723Z,101245.31
2022-09-13T22:27:30.621Z,101251.13
2022-09-13T22:30:00.710Z,101250.72
2022-09-13T22:32:30.836Z,101249.09
2022-09-13T22:35:19.483Z,101255.72
2022-09-13T22:37:49.678Z,101252.00
2022-09-13T22:40:20.575Z,101252.81
2022-09-13T22:42:50.761Z,101256.94
2022-09-13T22:45:21.693Z,101258.56
2022-09-13T22:48:00.865Z,101261.28
2022-09-13T22:50:31.417Z,101258.97
2022-09-13T22:53:02.142Z,101264.75
2022-09-13T22:55:32.499Z,101264.53
2022-09-13T22:58:02.449Z,101267.63
2022-09-13T23:00:32.414Z,101272.59
2022-09-13T23:03:02.498Z,101277.53
2022-09-13T23:05:32.966Z,101278.34
2022-09-13T23:08:05.633Z,101280.19
2022-09-13T23:10:35.906Z,101280.38
2022-09-13T23:13:24.769Z,101280.78
2022-09-13T23:15:54.865Z,101282.41
2022-09-13T23:18:24.920Z,101272.22
2022-09-13T23:20:59.215Z,101285.28
2022-09-13T23:23:29.983Z,101280.69
2022-09-13T23:26:23.587Z,101277.78
2022-09-13T23:28:58.148Z,101285.66
2022-09-13T23:31:31.649Z,101273.00
2022-09-13T23:34:04.938Z,101273.78
2022-09-13T23:36:38.173Z,101275.03
2022-09-13T23:39:12.585Z,101282.69
2022-09-13T23:41:42.601Z,101268.75
2022-09-13T23:44:13.076Z,101270.81
2022-09-13T23:46:44.517Z,101272.25
2022-09-13T23:49:14.815Z,101270.78
2022-09-13T23:51:45.349Z,101269.88
2022-09-13T23:54:16.778Z,101265.72
2022-09-13T23:56:46.762Z,101263.41
2022-09-13T23:59:16.999Z,101260.88
